Time;durP1;ratioP1;P1;durP2;ratioP2;P2;SDS_P1;SDS_P2;PMS_P1;PMS_P2;Temp;Humidity;BMP_temperature;BMP_pressure;BME280_temperature;BME280_humidity;BME280_pressure;Samples;Min_cycle;Max_cycle;Signal;HPM_P1;HPM_P2
2022/05/25 00:00:07;;;;;;;358.73;197.98;;;;;;;19.41;88.42;99468.28;338589;29;4454;-74
2022/05/25 00:00:18;;;;;;;357.27;195.10;;;;;;;19.43;88.61;99476.13;339523;29;985;-74
2022/05/25 00:00:29;;;;;;;362.14;201.98;;;;;;;19.45;88.44;99475.03;339457;29;2117;-74
2022/05/25 00:00:39;;;;;;;364.80;202.87;;;;;;;19.46;88.51;99473.22;336929;29;2413;-74
2022/05/25 00:00:57;;;;;;;365.63;206.37;;;;;;;19.49;88.20;99465.03;338203;29;886;-74
2022/05/25 00:01:08;;;;;;;358.98;197.60;;;;;;;19.49;88.14;99471.19;338145;29;2654;-74
2022/05/25 00:01:18;;;;;;;362.30;196.30;;;;;;;19.51;88.34;99469.25;338202;29;1337;-74
2022/05/25 00:01:30;;;;;;;364.25;201.68;;;;;;;19.52;88.26;99481.56;336395;29;2526;-74
2022/05/25 00:01:40;;;;;;;364.10;204.55;;;;;;;19.50;88.04;99472.84;335601;29;2450;-74
2022/05/25 00:01:51;;;;;;;359.73;201.23;;;;;;;19.47;87.99;99470.44;336951;29;1217;-74
2022/05/25 00:02:01;;;;;;;361.97;203.13;;;;;;;19.47;88.08;99475.75;339518;29;1828;-74
2022/05/25 00:02:13;;;;;;;364.63;202.25;;;;;;;19.45;87.94;99474.19;340032;29;1937;-74
2022/05/25 00:02:23;;;;;;;365.02;206.55;;;;;;;19.43;88.08;99476.97;338278;29;2399;-74
2022/05/25 00:02:34;;;;;;;362.90;206.77;;;;;;;19.41;88.36;99472.75;338111;29;1213;-74
2022/05/25 00:02:44;;;;;;;362.60;209.00;;;;;;;19.39;88.53;99472.88;336758;29;1411;-74
2022/05/25 00:02:55;;;;;;;361.17;206.27;;;;;;;19.40;88.77;99469.25;339080;29;2418;-74
2022/05/25 00:03:05;;;;;;;360.40;203.03;;;;;;;19.39;88.58;99474.69;339494;29;2249;-74
2022/05/25 00:03:16;;;;;;;361.70;206.43;;;;;;;19.39;88.59;99475.53;339206;29;2610;-74
2022/05/25 00:03:27;;;;;;;360.80;209.10;;;;;;;19.40;88.69;99479.88;338273;29;1323;-74
2022/05/25 00:03:38;;;;;;;360.33;211.20;;;;;;;19.41;88.64;99481.56;336769;29;2263;-74
2022/05/25 00:03:48;;;;;;;361.08;207.32;;;;;;;19.42;88.58;99477.94;338257;29;974;-74
2022/05/25 00:04:00;;;;;;;363.23;209.00;;;;;;;19.42;88.49;99479.75;337879;29;2477;-74
2022/05/25 00:04:10;;;;;;;361.85;206.55;;;;;;;19.43;88.56;99479.63;340087;29;2307;-74
2022/05/25 00:04:21;;;;;;;358.73;206.53;;;;;;;19.45;88.50;99479.50;338204;29;2322;-74
2022/05/25 00:04:31;;;;;;;358.55;206.82;;;;;;;19.46;88.11;99476.72;339628;29;839;-74
2022/05/25 00:04:41;;;;;;;358.53;206.87;;;;;;;19.46;88.28;99479.38;338818;29;2431;-74
2022/05/25 00:04:52;;;;;;;362.67;209.23;;;;;;;19.49;88.17;99481.78;335503;29;2214;-74
2022/05/25 00:05:04;;;;;;;363.83;210.00;;;;;;;19.51;88.30;99482.53;338187;29;1238;-74
2022/05/25 00:05:15;;;;;;;362.33;207.52;;;;;;;19.50;88.12;99486.09;340742;29;2735;-74
2022/05/25 00:05:26;;;;;;;359.10;204.70;;;;;;;19.51;88.40;99490.47;340776;29;2814;-74
2022/05/25 00:05:36;;;;;;;357.27;204.30;;;;;;;19.53;88.25;99482.41;339478;29;2567;-74
2022/05/25 00:05:47;;;;;;;357.73;205.60;;;;;;;19.52;87.91;99486.88;338019;29;1747;-74
2022/05/25 00:05:58;;;;;;;359.30;205.38;;;;;;;19.52;88.20;99486.88;339155;29;2331;-74
2022/05/25 00:06:09;;;;;;;359.85;205.40;;;;;;;19.51;87.90;99487.81;338304;29;2079;-74
2022/05/25 00:06:20;;;;;;;360.75;207.13;;;;;;;19.52;87.99;99486.88;336921;29;1768;-74
2022/05/25 00:06:30;;;;;;;360.17;204.00;;;;;;;19.52;87.97;99486.03;337602;29;2114;-74
2022/05/25 00:06:40;;;;;;;361.87;201.53;;;;;;;19.52;88.09;99492.16;336115;29;2416;-74
2022/05/25 00:06:51;;;;;;;363.98;201.43;;;;;;;19.55;87.79;99489.28;335745;29;1075;-74
2022/05/25 00:07:02;;;;;;;365.47;204.23;;;;;;;19.55;87.93;99486.63;337162;29;1973;-74
2022/05/25 00:07:12;;;;;;;366.92;206.13;;;;;;;19.55;87.89;99486.63;336288;29;1636;-74
2022/05/25 00:07:23;;;;;;;365.02;205.25;;;;;;;19.58;87.84;99490.84;339604;29;2228;-74
2022/05/25 00:07:33;;;;;;;366.07;208.03;;;;;;;19.57;87.42;99487.34;338168;29;1298;-74
2022/05/25 00:07:44;;;;;;;366.25;210.95;;;;;;;19.58;87.57;99481.06;338679;29;1444;-75
2022/05/25 00:07:54;;;;;;;369.47;218.67;;;;;;;19.58;87.41;99486.38;338608;29;2783;-74
2022/05/25 00:08:05;;;;;;;365.83;214.05;;;;;;;19.61;87.46;99490.59;338183;29;1226;-74
2022/05/25 00:08:15;;;;;;;364.13;211.33;;;;;;;19.59;87.77;99489.88;338083;29;1645;-74
2022/05/25 00:08:26;;;;;;;359.48;202.10;;;;;;;19.59;87.43;99492.53;338154;29;1529;-74
2022/05/25 00:08:37;;;;;;;358.17;203.17;;;;;;;19.60;87.22;99492.41;336844;29;1199;-74
2022/05/25 00:08:47;;;;;;;357.74;202.62;;;;;;;19.62;87.30;99496.75;337001;29;1820;-74
2022/05/25 00:08:58;;;;;;;358.37;202.87;;;;;;;19.62;87.07;99489.63;337453;29;1354;-74
2022/05/25 00:09:08;;;;;;;360.37;203.77;;;;;;;19.62;87.19;99491.44;337956;29;3831;-74
2022/05/25 00:09:19;;;;;;;361.97;206.03;;;;;;;19.60;87.20;99495.06;336367;29;1203;-74
2022/05/25 00:09:29;;;;;;;363.67;208.77;;;;;;;19.62;87.23;99500.25;341151;28;1181;-74
2022/05/25 00:09:39;;;;;;;363.58;209.63;;;;;;;19.59;87.26;99492.53;340826;29;2433;-74
2022/05/25 00:09:51;;;;;;;361.83;208.70;;;;;;;19.59;87.38;99489.88;339505;29;1187;-74
2022/05/25 00:10:03;;;;;;;360.38;205.15;;;;;;;19.61;87.42;99495.91;340329;29;2384;-74
2022/05/25 00:10:13;;;;;;;360.73;204.07;;;;;;;19.60;87.32;99488.91;340047;28;2307;-74
2022/05/25 00:10:23;;;;;;;359.17;202.07;;;;;;;19.60;87.59;99487.09;338281;29;2619;-74
2022/05/25 00:10:34;;;;;;;358.40;204.40;;;;;;;19.59;87.40;99492.53;337059;29;916;-74
2022/05/25 00:10:44;;;;;;;358.93;205.23;;;;;;;19.56;87.54;99493.63;338319;29;879;-74
2022/05/25 00:10:55;;;;;;;360.13;205.83;;;;;;;19.56;87.79;99493.63;338152;29;2629;-74
2022/05/25 00:11:05;;;;;;;360.63;204.32;;;;;;;19.57;87.59;99490.00;339070;29;1973;-74
2022/05/25 00:11:16;;;;;;;359.47;200.93;;;;;;;19.56;87.45;99490.97;339403;29;1985;-74
2022/05/25 00:11:26;;;;;;;358.88;201.63;;;;;;;19.56;87.52;99488.31;339102;29;2617;-74
2022/05/25 00:11:37;;;;;;;358.57;200.57;;;;;;;19.57;87.46;99490.00;340418;29;1187;-74
2022/05/25 00:11:47;;;;;;;357.52;200.13;;;;;;;19.58;87.55;99481.06;340515;29;2204;-74
2022/05/25 00:11:57;;;;;;;357.27;200.70;;;;;;;19.59;87.31;99487.22;339570;29;2154;-74
2022/05/25 00:12:08;;;;;;;360.48;207.50;;;;;;;19.59;87.38;99493.38;340346;29;1761;-74
2022/05/25 00:12:20;;;;;;;362.23;209.43;;;;;;;19.59;87.32;99489.88;339429;29;1846;-74
2022/05/25 00:12:30;;;;;;;363.85;208.52;;;;;;;19.60;87.28;99492.41;338035;29;1724;-74
2022/05/25 00:12:41;;;;;;;364.05;206.57;;;;;;;19.59;87.46;99485.41;336865;29;2620;-74
2022/05/25 00:12:51;;;;;;;364.23;207.87;;;;;;;19.61;87.64;99490.59;338227;29;1320;-74
2022/05/25 00:13:02;;;;;;;363.02;207.52;;;;;;;19.61;87.48;99487.94;338276;29;2428;-74
2022/05/25 00:13:12;;;;;;;360.77;209.03;;;;;;;19.61;87.22;99487.94;337985;29;1824;-74
2022/05/25 00:13:23;;;;;;;358.92;207.23;;;;;;;19.61;87.11;99485.28;338144;29;1414;-74
2022/05/25 00:13:33;;;;;;;357.30;205.13;;;;;;;19.60;87.16;99495.06;338317;29;929;-74
2022/05/25 00:13:44;;;;;;;358.55;202.27;;;;;;;19.63;87.08;99493.13;341018;28;1932;-74
2022/05/25 00:13:54;;;;;;;357.67;200.87;;;;;;;19.63;87.26;99493.13;339265;29;2215;-75
2022/05/25 00:14:04;;;;;;;358.38;199.30;;;;;;;19.62;87.49;99496.75;339418;29;1411;-74
2022/05/25 00:14:15;;;;;;;358.50;202.00;;;;;;;19.63;87.04;99490.47;339434;29;1747;-74
2022/05/25 00:14:25;;;;;;;360.73;206.90;;;;;;;19.63;87.20;99487.81;338363;29;2597;-74
2022/05/25 00:14:36;;;;;;;361.77;211.80;;;;;;;19.64;86.81;99492.16;340948;29;850;-74
2022/05/25 00:14:47;;;;;;;363.85;211.48;;;;;;;19.64;86.99;99489.50;339502;29;2366;-74
2022/05/25 00:14:58;;;;;;;364.20;209.07;;;;;;;19.67;87.12;99497.22;338144;29;910;-74
2022/05/25 00:15:09;;;;;;;362.08;206.85;;;;;;;19.67;86.79;99489.25;339644;29;850;-74
2022/05/25 00:15:20;;;;;;;359.50;206.45;;;;;;;19.67;86.88;99492.75;339539;29;893;-74
2022/05/25 00:15:30;;;;;;;361.38;208.50;;;;;;;19.68;86.64;99491.78;336830;29;2525;-74
2022/05/25 00:15:41;;;;;;;361.93;206.80;;;;;;;19.67;86.73;99483.97;339881;29;2279;-74
2022/05/25 00:15:51;;;;;;;361.75;202.60;;;;;;;19.69;86.82;99492.66;337819;29;2035;-74
2022/05/25 00:16:03;;;;;;;362.63;202.17;;;;;;;19.69;86.70;99492.66;339094;29;2336;-74
2022/05/25 00:16:13;;;;;;;364.20;204.82;;;;;;;19.70;87.06;99495.19;338536;29;2634;-74
2022/05/25 00:16:23;;;;;;;364.20;207.10;;;;;;;19.70;86.82;99494.34;336917;29;2443;-74
2022/05/25 00:16:34;;;;;;;361.80;205.00;;;;;;;19.71;86.85;99486.25;337571;29;2082;-74
2022/05/25 00:16:44;;;;;;;361.02;204.45;;;;;;;19.70;86.74;99484.56;338117;29;2540;-74
2022/05/25 00:16:54;;;;;;;361.60;203.87;;;;;;;19.71;86.53;99493.38;336239;29;2201;-74
2022/05/25 00:17:05;;;;;;;360.90;203.55;;;;;;;19.72;86.69;99487.94;336884;29;1730;-74
2022/05/25 00:17:16;;;;;;;360.10;202.87;;;;;;;19.71;86.48;99488.06;336685;29;1620;-74
2022/05/25 00:17:27;;;;;;;356.70;200.98;;;;;;;19.73;86.56;99489.63;339468;29;2264;-74
2022/05/25 00:17:37;;;;;;;355.43;197.83;;;;;;;19.73;86.62;99483.47;339505;29;1458;-74
2022/05/25 00:17:48;;;;;;;354.20;195.68;;;;;;;19.74;86.49;99493.97;338154;29;2110;-75
2022/05/25 00:17:58;;;;;;;355.47;199.60;;;;;;;19.73;86.62;99494.09;338644;29;2470;-74
2022/05/25 00:18:09;;;;;;;355.83;202.77;;;;;;;19.74;86.50;99485.16;337291;29;3598;-74
2022/05/25 00:18:19;;;;;;;354.50;201.70;;;;;;;19.73;86.39;99488.78;339866;29;2762;-74
2022/05/25 00:18:30;;;;;;;354.37;200.93;;;;;;;19.73;86.36;99478.16;339003;29;2607;-74
2022/05/25 00:19:58;;;;;;;355.90;202.07;;;;;;;19.73;86.36;99486.13;338245;29;2458;-74
2022/05/25 00:20:09;;;;;;;353.58;200.50;;;;;;;19.65;86.75;99477.91;338751;29;4909;-74
2022/05/25 00:20:20;;;;;;;355.27;201.55;;;;;;;19.64;86.82;99478.88;338629;29;2218;-74
2022/05/25 00:20:30;;;;;;;358.58;207.43;;;;;;;19.65;86.90;99484.06;337323;29;2438;-74
2022/05/25 00:20:41;;;;;;;359.13;208.73;;;;;;;19.68;86.67;99485.66;337679;29;2018;-74
2022/05/25 00:20:51;;;;;;;359.70;206.68;;;;;;;19.68;86.66;99488.28;336940;29;1830;-74
2022/05/25 00:21:02;;;;;;;360.50;204.87;;;;;;;19.69;86.99;99493.47;336842;29;2492;-74
2022/05/25 00:21:12;;;;;;;359.15;202.45;;;;;;;19.68;86.85;99481.19;336835;29;1190;-74
2022/05/25 00:21:22;;;;;;;360.57;206.63;;;;;;;19.71;86.80;99485.41;336848;29;1723;-74
2022/05/25 00:21:33;;;;;;;361.47;207.73;;;;;;;19.71;86.50;99485.41;336880;29;1532;-74
2022/05/25 00:21:43;;;;;;;362.95;212.23;;;;;;;19.71;86.59;99486.25;336933;29;1814;-74
2022/05/25 00:21:54;;;;;;;361.50;210.17;;;;;;;19.73;86.65;99484.31;338194;29;1382;-74
2022/05/25 00:22:04;;;;;;;362.40;208.38;;;;;;;19.74;86.56;99482.50;335715;29;923;-74
2022/05/25 00:22:15;;;;;;;362.80;206.50;;;;;;;19.75;86.35;99485.03;340021;28;2300;-74
2022/05/25 00:22:41;;;;;;;363.05;206.20;;;;;;;19.76;86.45;99483.22;340672;28;1661;-74
2022/05/25 00:22:53;;;;;;;356.27;203.95;;;;;;;19.77;86.49;99485.75;341029;28;1189;-74
2022/05/25 00:23:03;;;;;;;353.88;203.35;;;;;;;19.77;86.49;99490.22;338208;29;2375;-74
2022/05/25 00:23:14;;;;;;;355.63;205.17;;;;;;;19.77;86.51;99490.22;340370;29;1788;-74
2022/05/25 00:23:24;;;;;;;357.75;207.95;;;;;;;19.75;86.43;99486.84;342363;28;2441;-74
2022/05/25 00:23:34;;;;;;;361.27;210.60;;;;;;;19.75;86.54;99489.50;341180;29;870;-75
2022/05/25 00:23:45;;;;;;;359.00;205.68;;;;;;;19.72;86.53;99493.25;338521;29;2566;-74
2022/05/25 00:23:55;;;;;;;357.63;204.80;;;;;;;19.73;86.69;99488.78;336024;29;2373;-74
2022/05/25 00:24:06;;;;;;;356.37;205.17;;;;;;;19.72;86.77;99487.09;339825;29;957;-74
2022/05/25 00:24:16;;;;;;;357.77;207.60;;;;;;;19.69;86.66;99482.88;340110;29;2356;-74
2022/05/25 00:24:27;;;;;;;357.83;205.33;;;;;;;19.67;86.97;99490.09;338320;29;2457;-74
2022/05/25 00:24:37;;;;;;;357.25;206.13;;;;;;;19.67;86.95;99490.09;338467;29;1395;-74
2022/05/25 00:24:48;;;;;;;357.63;208.23;;;;;;;19.66;86.95;99488.41;337270;29;2472;-74
2022/05/25 00:24:58;;;;;;;358.60;209.50;;;;;;;19.64;87.04;99493.00;338489;29;2415;-74
2022/05/25 00:25:10;;;;;;;359.58;209.48;;;;;;;19.62;87.16;99486.13;337230;29;895;-74
2022/05/25 00:25:27;;;;;;;359.30;208.23;;;;;;;19.63;87.28;99493.97;337071;29;1480;-74
2022/05/25 00:25:39;;;;;;;358.27;208.10;;;;;;;19.60;87.23;99495.06;339176;29;1737;-74
2022/05/25 00:25:49;;;;;;;357.13;203.13;;;;;;;19.60;87.36;99491.56;339753;29;2520;-74
2022/05/25 00:26:00;;;;;;;359.03;206.90;;;;;;;19.58;87.36;99491.69;337028;29;1412;-74
2022/05/25 00:26:10;;;;;;;357.45;203.85;;;;;;;19.60;87.31;99500.38;338488;29;2009;-74
2022/05/25 00:26:21;;;;;;;359.67;208.83;;;;;;;19.62;87.20;99491.44;338479;29;2608;-74
2022/05/25 00:26:33;;;;;;;361.33;210.35;;;;;;;19.62;87.18;99497.59;337093;29;1733;-74
2022/05/25 00:26:43;;;;;;;362.73;213.40;;;;;;;19.64;87.17;99489.50;336319;29;2922;-74
2022/05/25 00:26:53;;;;;;;364.17;214.30;;;;;;;19.63;87.04;99491.31;339740;29;944;-74
2022/05/25 00:27:04;;;;;;;364.70;213.67;;;;;;;19.64;87.06;99497.47;341033;29;2521;-74
2022/05/25 00:27:14;;;;;;;365.75;213.77;;;;;;;19.65;87.18;99496.50;339702;28;3166;-74
2022/05/25 00:27:25;;;;;;;365.47;213.10;;;;;;;19.64;87.68;99497.47;339598;29;2368;-74
2022/05/25 00:27:35;;;;;;;364.90;213.43;;;;;;;19.64;87.42;99494.81;339311;29;1419;-74
2022/05/25 00:27:47;;;;;;;365.37;213.10;;;;;;;19.66;87.30;99492.88;338318;29;1381;-74
2022/05/25 00:27:57;;;;;;;363.50;209.57;;;;;;;19.65;87.16;99493.84;338074;29;2422;-74
2022/05/25 00:28:12;;;;;;;363.50;208.73;;;;;;;19.64;86.72;99494.81;337232;29;1198;-74
2022/05/25 00:28:23;;;;;;;361.65;206.20;;;;;;;19.65;87.14;99493.84;339458;29;1295;-74
2022/05/25 00:28:33;;;;;;;361.75;206.85;;;;;;;19.65;87.17;99496.50;336129;29;1999;-74
2022/05/25 00:28:43;;;;;;;361.13;209.13;;;;;;;19.66;87.11;99492.88;339772;29;2086;-74
2022/05/25 00:28:54;;;;;;;361.48;210.30;;;;;;;19.66;87.13;99499.03;338522;29;1190;-74
2022/05/25 00:29:04;;;;;;;361.23;209.80;;;;;;;19.67;86.86;99499.88;339555;29;2075;-74
2022/05/25 00:29:15;;;;;;;363.00;209.10;;;;;;;19.67;87.20;99495.41;339087;29;2364;-76
2022/05/25 00:29:25;;;;;;;363.10;205.17;;;;;;;19.68;87.18;99501.56;341215;29;861;-74
2022/05/25 00:29:38;;;;;;;362.00;203.18;;;;;;;19.67;86.91;99483.97;339779;29;1307;-74
2022/05/25 00:29:49;;;;;;;357.67;199.18;;;;;;;19.70;87.03;99496.97;339346;29;1350;-74
2022/05/25 00:30:00;;;;;;;355.03;196.43;;;;;;;19.70;86.66;99494.34;339323;29;1956;-74
2022/05/25 00:30:11;;;;;;;357.17;200.55;;;;;;;19.73;86.74;99491.44;337894;29;3666;-74
2022/05/25 00:30:21;;;;;;;358.17;203.05;;;;;;;19.69;86.90;99492.66;337499;29;3448;-74
2022/05/25 00:30:32;;;;;;;359.00;205.52;;;;;;;19.69;86.73;99490.00;339992;29;2125;-73
2022/05/25 00:30:44;;;;;;;358.25;203.52;;;;;;;19.69;87.01;99497.94;338720;29;2148;-74
2022/05/25 00:30:54;;;;;;;355.55;202.52;;;;;;;19.70;86.79;99496.97;339751;29;1841;-74
2022/05/25 00:31:04;;;;;;;353.95;201.38;;;;;;;19.70;86.67;99492.53;338305;29;2688;-74
2022/05/25 00:31:15;;;;;;;352.93;199.00;;;;;;;19.72;86.78;99497.72;337085;29;2548;-74
2022/05/25 00:31:25;;;;;;;352.70;195.48;;;;;;;19.71;86.61;99501.34;338288;29;2153;-74
2022/05/25 00:31:36;;;;;;;353.80;198.50;;;;;;;19.71;86.79;99496.03;342392;28;1371;-74
2022/05/25 00:31:47;;;;;;;355.95;201.18;;;;;;;19.71;86.58;99491.56;339750;29;2527;-74
2022/05/25 00:31:57;;;;;;;359.15;207.02;;;;;;;19.72;86.43;99493.25;339652;29;1913;-74
2022/05/25 00:32:08;;;;;;;359.57;208.97;;;;;;;19.73;86.44;99496.75;338237;29;1855;-74
2022/05/25 00:32:18;;;;;;;359.80;209.65;;;;;;;19.73;86.55;99494.09;340826;29;2362;-74
2022/05/25 00:32:29;;;;;;;360.60;211.27;;;;;;;19.75;86.49;99497.47;340596;29;1987;-74
2022/05/25 00:32:40;;;;;;;357.90;205.48;;;;;;;19.75;86.44;99497.47;338832;29;898;-74
2022/05/25 00:32:50;;;;;;;359.80;205.43;;;;;;;19.75;86.38;99500.13;337093;29;1476;-74
2022/05/25 00:33:01;;;;;;;364.20;205.43;;;;;;;19.76;86.43;99499.16;339281;29;2124;-74
2022/05/25 00:33:11;;;;;;;368.00;208.40;;;;;;;19.76;86.35;99493.84;338610;29;1268;-74
2022/05/25 00:33:23;;;;;;;367.97;210.30;;;;;;;19.76;86.41;99493.84;339767;29;929;-74
2022/05/25 00:33:33;;;;;;;365.33;210.80;;;;;;;19.76;86.32;99488.53;339804;29;1630;-74
2022/05/25 00:33:43;;;;;;;363.37;209.73;;;;;;;19.77;86.55;99495.53;339746;29;2042;-74
2022/05/25 00:33:54;;;;;;;359.95;204.15;;;;;;;19.74;86.45;99490.47;338536;29;909;-74
2022/05/25 00:34:04;;;;;;;360.57;204.70;;;;;;;19.73;86.25;99488.78;337341;29;2585;-74
2022/05/25 00:34:15;;;;;;;362.60;207.37;;;;;;;19.71;86.41;99488.91;335514;29;2182;-74
2022/05/25 00:34:25;;;;;;;363.67;211.18;;;;;;;19.72;86.63;99487.94;337656;29;2288;-74
2022/05/25 00:34:35;;;;;;;364.03;211.40;;;;;;;19.72;86.41;99489.75;338213;29;1911;-74
2022/05/25 00:34:46;;;;;;;363.85;209.63;;;;;;;19.71;86.21;99491.56;337092;29;2556;-74
2022/05/25 00:34:58;;;;;;;365.20;212.20;;;;;;;19.71;86.68;99490.72;338372;29;1831;-74
2022/05/25 00:35:14;;;;;;;364.27;209.25;;;;;;;19.72;86.47;99497.72;339497;29;1729;-74
2022/05/25 00:35:26;;;;;;;361.70;207.52;;;;;;;19.73;86.34;99494.09;339450;29;882;-74
2022/05/25 00:35:36;;;;;;;361.17;205.63;;;;;;;19.74;86.68;99490.47;339184;29;932;-74
2022/05/25 00:35:47;;;;;;;362.42;205.45;;;;;;;19.73;86.28;99494.09;340439;29;1768;-74
2022/05/25 00:35:57;;;;;;;359.47;204.10;;;;;;;19.75;86.54;99494.81;337150;29;2031;-74
2022/05/25 00:36:07;;;;;;;359.88;206.50;;;;;;;19.73;86.41;99494.09;339310;29;1246;-73
2022/05/25 00:36:18;;;;;;;358.37;205.13;;;;;;;19.73;86.44;99488.78;338073;29;2251;-73
2022/05/25 00:36:29;;;;;;;357.40;204.82;;;;;;;19.74;86.72;99493.13;338042;29;2529;-73
2022/05/25 00:36:39;;;;;;;354.88;203.18;;;;;;;19.75;86.59;99492.16;337700;29;5562;-73
2022/05/25 00:36:50;;;;;;;357.80;205.00;;;;;;;19.76;86.48;99491.19;337665;29;3089;-73
2022/05/25 00:37:00;;;;;;;360.27;206.37;;;;;;;19.75;86.49;99487.69;339700;29;2331;-73
2022/05/25 00:37:10;;;;;;;359.90;205.65;;;;;;;19.75;86.51;99481.53;338823;29;2195;-73
2022/05/25 00:37:21;;;;;;;360.50;206.87;;;;;;;19.75;86.33;99489.50;340034;29;1138;-73
2022/05/25 00:37:31;;;;;;;358.35;206.05;;;;;;;19.75;86.25;99492.16;337874;29;2094;-73
2022/05/25 00:37:42;;;;;;;359.77;208.70;;;;;;;19.75;86.44;99489.50;339564;29;1825;-73
2022/05/25 00:37:52;;;;;;;360.00;207.02;;;;;;;19.74;86.22;99485.16;338602;29;1077;-73
2022/05/25 00:38:03;;;;;;;360.57;205.53;;;;;;;19.75;86.30;99492.16;340701;29;1877;-73
2022/05/25 00:38:14;;;;;;;359.52;203.63;;;;;;;19.74;86.26;99487.81;337132;29;2247;-73
2022/05/25 00:38:24;;;;;;;360.17;204.65;;;;;;;19.76;86.28;99488.53;337109;29;1318;-73
2022/05/25 00:38:35;;;;;;;361.37;207.77;;;;;;;19.77;85.96;99490.22;338294;29;1930;-73
2022/05/25 00:38:45;;;;;;;363.75;210.45;;;;;;;19.77;86.30;99490.22;339662;29;2089;-73
2022/05/25 00:38:55;;;;;;;365.50;210.93;;;;;;;19.78;85.97;99498.06;339741;29;1302;-73
2022/05/25 00:39:06;;;;;;;364.30;209.53;;;;;;;19.78;85.94;99487.44;338496;29;1113;-73
2022/05/25 00:39:16;;;;;;;363.38;208.52;;;;;;;19.78;85.95;99486.59;336884;29;1907;-73
2022/05/25 00:39:27;;;;;;;366.50;208.27;;;;;;;19.74;86.04;99490.47;335731;29;2725;-73
2022/05/25 00:39:38;;;;;;;369.50;207.73;;;;;;;19.72;86.42;99492.41;338428;29;1238;-73
2022/05/25 00:39:48;;;;;;;367.67;207.73;;;;;;;19.70;86.17;99494.34;339661;29;2679;-73
2022/05/25 00:39:59;;;;;;;363.77;207.33;;;;;;;19.70;86.40;99489.88;341331;28;2104;-73
2022/05/25 00:40:14;;;;;;;360.23;205.88;;;;;;;19.71;86.38;99490.72;340716;29;1852;-73
2022/05/25 00:40:27;;;;;;;356.60;201.15;;;;;;;19.68;86.58;99494.44;341603;28;957;-73
2022/05/25 00:40:43;;;;;;;358.55;203.70;;;;;;;19.66;86.48;99484.91;340863;29;1567;-73
2022/05/25 00:40:53;;;;;;;363.33;208.35;;;;;;;19.63;86.57;99490.47;337214;29;1509;-73
2022/05/25 00:41:04;;;;;;;363.10;206.93;;;;;;;19.57;86.74;99495.31;339773;29;2211;-73
2022/05/25 00:41:14;;;;;;;358.67;205.77;;;;;;;19.54;86.67;99494.72;341396;28;1401;-73
2022/05/25 00:41:28;;;;;;;357.88;206.55;;;;;;;19.50;86.98;99496.72;339554;29;2307;-73
2022/05/25 00:41:38;;;;;;;361.77;207.20;;;;;;;19.51;87.19;99495.78;338551;29;946;-73
2022/05/25 00:41:49;;;;;;;363.20;207.10;;;;;;;19.53;87.50;99493.84;340902;29;2493;-73
2022/05/25 00:42:03;;;;;;;362.90;204.77;;;;;;;19.53;87.17;99491.22;340270;29;2226;-73
2022/05/25 00:42:13;;;;;;;359.00;202.95;;;;;;;19.54;87.13;99489.41;336720;29;2242;-73
2022/05/25 00:42:24;;;;;;;358.23;202.97;;;;;;;19.53;87.11;99495.66;338568;29;1018;-73
2022/05/25 00:42:37;;;;;;;358.13;204.00;;;;;;;19.52;87.18;99492.16;338196;29;1368;-73
2022/05/25 00:42:47;;;;;;;362.13;207.02;;;;;;;19.54;87.42;99490.25;341211;28;2544;-73
2022/05/25 00:42:58;;;;;;;364.53;206.90;;;;;;;19.54;87.12;99492.91;341543;28;2587;-73
2022/05/25 00:43:08;;;;;;;364.83;208.50;;;;;;;19.55;87.33;99494.59;338552;29;965;-73
2022/05/25 00:43:19;;;;;;;361.17;208.33;;;;;;;19.56;87.42;99493.63;336931;29;2051;-73
2022/05/25 00:43:29;;;;;;;359.27;204.88;;;;;;;19.58;87.04;99490.84;339715;29;2027;-73
2022/05/25 00:43:40;;;;;;;358.77;203.13;;;;;;;19.56;87.12;99490.97;341151;29;883;-75
2022/05/25 00:43:50;;;;;;;359.80;199.85;;;;;;;19.59;87.32;99496.03;339871;29;918;-73
2022/05/25 00:44:01;;;;;;;358.03;200.97;;;;;;;19.58;86.93;99493.50;338928;29;2173;-73
2022/05/25 00:44:11;;;;;;;356.85;198.95;;;;;;;19.59;87.30;99497.84;339757;29;2401;-73
2022/05/25 00:44:21;;;;;;;359.23;201.03;;;;;;;19.59;87.22;99493.38;341185;28;1226;-73
2022/05/25 00:44:32;;;;;;;360.70;202.30;;;;;;;19.61;87.29;99495.91;340567;29;2126;-73
2022/05/25 00:44:43;;;;;;;360.33;203.90;;;;;;;19.62;87.02;99504.72;339185;29;2476;-73
2022/05/25 00:44:53;;;;;;;361.05;205.60;;;;;;;19.62;86.86;99499.41;339675;29;1750;-73
2022/05/25 00:45:04;;;;;;;363.03;207.97;;;;;;;19.61;86.92;99495.91;340120;29;2548;-73
2022/05/25 00:45:15;;;;;;;362.02;207.73;;;;;;;19.61;86.92;99495.91;339262;29;1933;-73
2022/05/25 00:45:25;;;;;;;361.73;206.40;;;;;;;19.63;86.95;99495.78;340960;29;1798;-73
2022/05/25 00:46:09;;;;;;;362.05;204.23;;;;;;;19.62;86.97;99497.59;339945;29;942;-73
2022/05/25 00:46:20;;;;;;;361.65;202.98;;;;;;;19.64;86.75;99497.47;333035;29;1618;-73
2022/05/25 00:46:32;;;;;;;362.45;203.88;;;;;;;19.62;86.99;99497.59;331977;29;1871;-73
2022/05/25 00:46:42;;;;;;;361.77;201.55;;;;;;;19.64;86.80;99492.16;335213;29;1929;-73
2022/05/25 00:46:53;;;;;;;358.45;198.85;;;;;;;19.64;86.82;99489.50;338776;29;1346;-73
2022/05/25 00:47:03;;;;;;;361.80;201.87;;;;;;;19.64;86.94;99494.81;335350;29;2251;-73
2022/05/25 00:47:14;;;;;;;361.13;203.25;;;;;;;19.65;86.63;99496.50;336312;29;2227;-73
2022/05/25 00:47:25;;;;;;;366.58;206.60;;;;;;;19.66;86.55;99503.50;338963;29;1333;-73
2022/05/25 00:47:37;;;;;;;365.15;205.75;;;;;;;19.66;86.45;99492.88;339196;29;2054;-73
2022/05/25 00:47:48;;;;;;;361.73;205.68;;;;;;;19.66;86.55;99492.88;335791;29;2571;-73
2022/05/25 00:47:59;;;;;;;359.15;205.27;;;;;;;19.67;86.48;99495.41;336656;29;2047;-73
2022/05/25 00:48:10;;;;;;;360.73;208.82;;;;;;;19.67;86.69;99497.22;338466;29;1325;-74
2022/05/25 00:48:30;;;;;;;359.92;206.38;;;;;;;19.68;86.46;99501.56;339851;29;939;-74
2022/05/25 00:48:44;;;;;;;359.58;201.70;;;;;;;19.67;86.62;99495.41;337384;29;2360;-73
2022/05/25 00:49:05;;;;;;;360.92;201.63;;;;;;;19.56;86.75;99498.94;339890;29;874;-73
2022/05/25 00:49:23;;;;;;;357.02;197.55;;;;;;;19.55;87.01;99496.41;338060;29;2047;-73
2022/05/25 00:49:33;;;;;;;357.63;199.10;;;;;;;19.54;87.03;99495.56;339172;29;2491;-73
2022/05/25 00:49:44;;;;;;;357.20;201.13;;;;;;;19.55;87.03;99501.69;338330;29;2166;-73
2022/05/25 00:49:54;;;;;;;358.08;199.45;;;;;;;19.57;86.75;99495.31;338577;29;1242;-73
2022/05/25 00:50:05;;;;;;;360.03;199.33;;;;;;;19.57;86.85;99497.97;336692;29;3017;-74
2022/05/25 00:50:16;;;;;;;357.85;195.25;;;;;;;19.59;86.83;99503.16;337977;29;2049;-74
2022/05/25 00:51:11;;;;;;;357.10;195.32;;;;;;;19.59;86.68;99498.69;342222;28;2571;-74
2022/05/25 00:51:13;;;;;;;364.25;200.20;;;;;;;19.62;86.67;99484.31;340898;29;1534;-74
2022/05/25 00:51:46;;;;;;;357.55;201.40;;;;;;;19.56;86.52;99498.94;339856;29;854;-73
2022/05/25 00:51:59;;;;;;;357.10;197.15;;;;;;;19.53;86.43;99496.50;337163;29;1613;-73
2022/05/25 00:52:11;;;;;;;358.00;198.57;;;;;;;19.49;86.58;99495.06;336346;29;1816;-73
2022/05/25 00:52:21;;;;;;;358.83;202.18;;;;;;;19.47;86.98;99494.34;338549;29;1337;-73
2022/05/25 00:52:32;;;;;;;358.35;199.15;;;;;;;19.42;86.78;99496.53;339677;29;2664;-73
2022/05/25 00:52:44;;;;;;;356.53;196.03;;;;;;;19.41;86.80;99494.81;337014;29;1429;-73
2022/05/25 00:52:54;;;;;;;355.75;194.00;;;;;;;19.36;87.17;99498.81;335964;29;926;-73
2022/05/25 00:53:05;;;;;;;355.58;196.68;;;;;;;19.32;87.30;99500.00;339578;29;2579;-73
2022/05/25 00:53:16;;;;;;;356.23;197.37;;;;;;;19.28;87.50;99494.09;339735;29;2292;-73
2022/05/25 00:53:26;;;;;;;357.42;197.48;;;;;;;19.27;87.54;99492.41;337264;29;2547;-73